createdAt,value
2023-04-09T00:00:38.099Z,6.00
2023-04-09T00:05:42.869Z,7.00
2023-04-09T00:10:47.699Z,6.00
2023-04-09T00:15:52.739Z,7.50
2023-04-09T00:20:57.492Z,6.50
2023-04-09T00:26:02.343Z,12.25
2023-04-09T00:31:07.207Z,16.75
2023-04-09T00:36:12.041Z,18.25
2023-04-09T00:41:16.733Z,16.00
2023-04-09T00:46:21.747Z,14.00
2023-04-09T00:51:26.454Z,17.75
2023-04-09T00:56:31.828Z,16.75
2023-04-09T01:01:36.754Z,14.00
2023-04-09T01:06:59.635Z,15.25
2023-04-09T01:12:24.344Z,18.00
2023-04-09T01:17:44.069Z,16.25
2023-04-09T01:23:07.588Z,14.50
2023-04-09T01:28:15.595Z,16.50
2023-04-09T01:33:21.757Z,16.50
2023-04-09T01:38:26.982Z,17.00
2023-04-09T01:43:32.857Z,19.25
2023-04-09T01:48:39.017Z,16.00
2023-04-09T01:53:44.358Z,18.00
2023-04-09T01:58:48.962Z,17.00
2023-04-09T02:04:00.258Z,16.50
2023-04-09T02:09:07.410Z,15.50
2023-04-09T02:14:13.727Z,14.75
2023-04-09T02:19:18.468Z,19.25
2023-04-09T02:24:23.992Z,18.75
2023-04-09T02:29:29.004Z,19.50
2023-04-09T02:34:33.798Z,26.25
2023-04-09T02:39:38.448Z,24.25
2023-04-09T02:44:43.220Z,22.75
2023-04-09T02:49:48.778Z,21.50
2023-04-09T02:54:56.262Z,19.75
2023-04-09T03:00:00.914Z,22.75
2023-04-09T03:05:06.421Z,22.00
2023-04-09T03:10:11.722Z,20.50
2023-04-09T03:15:16.728Z,19.75
2023-04-09T03:20:21.319Z,21.50
2023-04-09T03:25:26.094Z,19.25
2023-04-09T03:30:32.243Z,19.50
2023-04-09T03:35:39.610Z,19.00
2023-04-09T03:40:44.604Z,20.75
2023-04-09T03:45:49.392Z,19.50
2023-04-09T03:51:00.669Z,17.50
2023-04-09T03:56:13.541Z,19.50
2023-04-09T04:01:19.009Z,17.25
2023-04-09T04:06:36.077Z,18.75
2023-04-09T04:12:00.273Z,16.50
2023-04-09T04:17:25.169Z,19.00
2023-04-09T04:22:31.448Z,16.75
2023-04-09T04:27:37.151Z,16.75
2023-04-09T04:32:43.118Z,17.25
2023-04-09T04:37:51.387Z,14.25
2023-04-09T04:42:58.209Z,17.00
2023-04-09T04:48:06.473Z,19.00
2023-04-09T04:53:11.360Z,18.50
2023-04-09T04:58:25.082Z,16.75
2023-04-09T05:03:35.306Z,15.75
2023-04-09T05:08:49.863Z,15.25
2023-04-09T05:13:55.137Z,14.25
2023-04-09T05:19:01.127Z,16.75
2023-04-09T05:24:06.752Z,16.75
2023-04-09T05:29:12.364Z,14.50
2023-04-09T05:34:17.215Z,14.25
2023-04-09T05:39:27.065Z,14.50
2023-04-09T05:44:34.370Z,13.00
2023-04-09T05:49:47.066Z,14.00
2023-04-09T05:54:55.596Z,15.50
2023-04-09T06:00:09.647Z,12.50
2023-04-09T06:05:29.492Z,13.00
2023-04-09T06:10:35.990Z,12.75
2023-04-09T06:15:41.827Z,11.25
2023-04-09T06:20:47.041Z,13.00
2023-04-09T06:25:52.045Z,12.00
2023-04-09T06:30:57.483Z,14.00
2023-04-09T06:36:02.732Z,12.75
2023-04-09T06:41:10.360Z,12.75
2023-04-09T06:46:18.851Z,12.25
2023-04-09T06:51:23.919Z,13.00
2023-04-09T06:56:28.915Z,12.50
2023-04-09T07:01:35.083Z,11.50
2023-04-09T07:06:41.618Z,19.00
2023-04-09T07:11:46.617Z,23.50
2023-04-09T07:16:51.446Z,27.50
2023-04-09T07:21:58.333Z,29.75
2023-04-09T07:27:08.886Z,27.00
2023-04-09T07:32:13.970Z,25.75
2023-04-09T07:37:19.063Z,24.75
2023-04-09T07:42:23.855Z,25.00
2023-04-09T07:47:29.956Z,24.50
2023-04-09T07:52:35.004Z,24.00
2023-04-09T07:57:39.975Z,23.00
2023-04-09T08:02:45.272Z,23.00
2023-04-09T08:07:50.770Z,24.00
2023-04-09T08:12:55.407Z,23.50
2023-04-09T08:18:00.590Z,23.00
2023-04-09T08:23:07.641Z,24.00
2023-04-09T08:28:16.216Z,30.00
2023-04-09T08:33:21.222Z,24.75
2023-04-09T08:38:26.286Z,25.25
2023-04-09T08:43:52.656Z,24.75
2023-04-09T08:49:01.287Z,23.75
2023-04-09T08:54:08.860Z,25.00
2023-04-09T08:59:17.011Z,23.75
2023-04-09T09:04:23.487Z,22.25
2023-04-09T09:09:28.609Z,24.00
2023-04-09T09:14:35.882Z,22.50
2023-04-09T09:19:40.937Z,22.50
2023-04-09T09:24:53.179Z,23.50
2023-04-09T09:29:59.115Z,22.00
2023-04-09T09:35:07.868Z,22.50
2023-04-09T09:40:13.107Z,29.00
2023-04-09T09:45:21.963Z,24.75
2023-04-09T09:50:27.204Z,25.75
2023-04-09T09:55:35.980Z,22.75
2023-04-09T10:00:42.509Z,23.50
2023-04-09T10:05:47.565Z,23.25
2023-04-09T10:10:55.409Z,24.75
2023-04-09T10:16:00.914Z,22.75
2023-04-09T10:21:05.955Z,22.00
2023-04-09T10:26:11.928Z,23.00
2023-04-09T10:31:16.566Z,21.00
2023-04-09T10:36:23.499Z,22.75
2023-04-09T10:41:29.942Z,22.00
2023-04-09T10:46:38.285Z,23.50
2023-04-09T10:51:43.596Z,21.75
2023-04-09T10:57:08.432Z,22.75
2023-04-09T11:02:25.763Z,22.25
2023-04-09T11:07:32.630Z,21.75
2023-04-09T11:12:37.519Z,21.00
2023-04-09T11:17:42.979Z,23.25
2023-04-09T11:22:48.533Z,25.25
2023-04-09T11:27:54.454Z,22.00
2023-04-09T11:32:59.410Z,23.25
2023-04-09T11:38:08.533Z,24.00
2023-04-09T11:43:13.170Z,22.50
2023-04-09T11:48:19.834Z,22.25
2023-04-09T11:53:26.312Z,23.00
2023-04-09T11:58:31.233Z,22.50
2023-04-09T12:03:38.421Z,23.00
2023-04-09T12:08:44.648Z,22.00
2023-04-09T12:13:49.880Z,23.00
2023-04-09T12:18:57.127Z,21.50
2023-04-09T12:24:05.206Z,21.75
2023-04-09T12:29:10.295Z,21.50
2023-04-09T12:34:15.293Z,21.25
2023-04-09T12:39:22.377Z,22.50
2023-04-09T12:44:27.836Z,22.00
2023-04-09T12:49:32.702Z,20.75
2023-04-09T12:54:37.557Z,22.00
2023-04-09T12:59:42.218Z,21.50
2023-04-09T13:04:47.282Z,21.00
2023-04-09T13:09:52.804Z,21.50
2023-04-09T13:14:58.032Z,23.00
2023-04-09T13:20:03.348Z,21.50
2023-04-09T13:25:10.018Z,23.25
2023-04-09T13:30:15.718Z,23.00
2023-04-09T13:35:20.477Z,23.00
2023-04-09T13:40:25.745Z,24.25
2023-04-09T13:45:30.574Z,23.00
2023-04-09T13:50:35.861Z,22.25
2023-04-09T13:55:41.341Z,24.75
2023-04-09T14:00:46.224Z,23.25
2023-04-09T14:05:51.030Z,24.00
2023-04-09T14:10:56.262Z,24.00
2023-04-09T14:16:01.439Z,25.25
2023-04-09T14:21:10.174Z,26.75
2023-04-09T14:26:17.120Z,25.00
2023-04-09T14:31:23.617Z,22.50
2023-04-09T14:36:33.910Z,24.25
2023-04-09T14:41:38.960Z,23.50
2023-04-09T14:46:45.174Z,26.75
2023-04-09T14:51:51.927Z,25.25
2023-04-09T14:56:56.908Z,25.25
2023-04-09T15:02:02.434Z,26.75
2023-04-09T15:07:08.414Z,25.50
2023-04-09T15:12:13.518Z,26.25
2023-04-09T15:17:18.761Z,25.25
2023-04-09T15:22:23.991Z,25.25
2023-04-09T15:27:38.376Z,27.50
2023-04-09T15:32:45.297Z,25.75
2023-04-09T15:37:53.314Z,27.00
2023-04-09T15:42:59.539Z,27.00
2023-04-09T15:48:07.119Z,26.75
2023-04-09T15:53:23.448Z,27.25
2023-04-09T15:58:29.133Z,25.50
2023-04-09T16:03:41.564Z,25.00
2023-04-09T16:08:47.124Z,27.00
2023-04-09T16:13:54.109Z,27.50
2023-04-09T16:19:02.534Z,27.50
2023-04-09T16:24:07.978Z,27.25
2023-04-09T16:29:14.315Z,27.50
2023-04-09T16:34:19.734Z,27.25
2023-04-09T16:39:24.939Z,27.00
2023-04-09T16:44:30.722Z,27.25
2023-04-09T16:49:37.432Z,27.25
2023-04-09T16:54:48.511Z,27.25
2023-04-09T16:59:53.829Z,26.50
2023-04-09T17:04:59.105Z,27.50
2023-04-09T17:10:07.790Z,27.00
2023-04-09T17:15:13.217Z,26.00
2023-04-09T17:20:18.294Z,27.50
2023-04-09T17:25:23.414Z,28.00
2023-04-09T17:30:29.000Z,28.00
2023-04-09T17:35:34.392Z,27.00
2023-04-09T17:40:39.214Z,28.00
2023-04-09T17:45:44.643Z,28.00
2023-04-09T17:50:49.841Z,28.50
2023-04-09T17:55:55.074Z,28.50
2023-04-09T18:01:01.110Z,29.25
2023-04-09T18:06:06.401Z,28.75
2023-04-09T18:11:13.256Z,29.00
2023-04-09T18:16:20.899Z,28.25
2023-04-09T18:21:26.042Z,29.25
2023-04-09T18:26:31.789Z,28.50
2023-04-09T18:31:37.039Z,28.00
2023-04-09T18:36:44.889Z,28.00
2023-04-09T18:41:49.507Z,30.50
2023-04-09T18:46:54.484Z,30.00
2023-04-09T18:51:59.537Z,30.25
2023-04-09T18:57:05.559Z,28.25
2023-04-09T19:02:10.792Z,29.50
2023-04-09T19:07:15.750Z,29.00
2023-04-09T19:12:22.061Z,29.00
2023-04-09T19:17:26.805Z,29.00
2023-04-09T19:22:31.807Z,30.25
2023-04-09T19:27:36.791Z,30.50
2023-04-09T19:32:42.610Z,30.50
2023-04-09T19:37:48.179Z,30.00
2023-04-09T19:42:53.029Z,30.25
2023-04-09T19:47:57.801Z,30.75
2023-04-09T19:53:03.542Z,30.00
2023-04-09T19:58:08.684Z,31.50
2023-04-09T20:03:13.841Z,30.25
2023-04-09T20:08:19.421Z,29.25
2023-04-09T20:13:24.623Z,31.00
2023-04-09T20:18:30.026Z,30.50
2023-04-09T20:23:34.833Z,30.75
2023-04-09T20:28:39.736Z,31.00
2023-04-09T20:33:45.513Z,30.50
2023-04-09T20:38:50.642Z,31.00
2023-04-09T20:43:55.566Z,31.00
2023-04-09T20:49:00.510Z,31.25
2023-04-09T20:54:06.451Z,31.50
2023-04-09T20:59:11.598Z,32.25
2023-04-09T21:04:16.649Z,32.25
2023-04-09T21:09:21.970Z,32.00
2023-04-09T21:14:26.807Z,33.00
2023-04-09T21:19:31.607Z,31.25
2023-04-09T21:24:36.705Z,33.50
2023-04-09T21:29:41.685Z,32.75
2023-04-09T21:34:47.496Z,33.00
2023-04-09T21:39:52.660Z,32.75
2023-04-09T21:44:57.370Z,33.00
2023-04-09T21:50:02.182Z,33.00
2023-04-09T21:55:07.565Z,31.75
2023-04-09T22:00:12.816Z,34.00
2023-04-09T22:05:17.648Z,33.75
2023-04-09T22:10:23.325Z,33.00
2023-04-09T22:15:28.727Z,34.75
2023-04-09T22:20:33.637Z,33.50
2023-04-09T22:25:38.996Z,35.00
2023-04-09T22:30:44.091Z,34.00
2023-04-09T22:35:49.330Z,33.50
2023-04-09T22:40:54.485Z,33.00
2023-04-09T22:45:59.340Z,32.25
2023-04-09T22:51:04.257Z,32.75
2023-04-09T22:56:09.698Z,30.75
2023-04-09T23:01:14.520Z,32.50
2023-04-09T23:06:19.567Z,31.75
2023-04-09T23:11:24.510Z,31.25
2023-04-09T23:16:29.499Z,29.00
2023-04-09T23:21:34.140Z,32.75
2023-04-09T23:26:40.076Z,33.50
2023-04-09T23:31:45.117Z,47.25
2023-04-09T23:36:50.986Z,43.50
2023-04-09T23:41:56.682Z,43.25
2023-04-09T23:47:01.302Z,44.50
2023-04-09T23:52:06.756Z,49.00
2023-04-09T23:57:11.646Z,47.75
